createdAt,value
2023-04-12T00:00:12.714Z,8.10
2023-04-12T00:02:40.485Z,8.10
2023-04-12T00:05:09.726Z,8.00
2023-04-12T00:07:38.506Z,8.00
2023-04-12T00:10:08.097Z,8.00
2023-04-12T00:12:35.053Z,8.00
2023-04-12T00:15:02.051Z,8.00
2023-04-12T00:17:28.975Z,8.00
2023-04-12T00:19:55.987Z,7.90
2023-04-12T00:22:22.898Z,7.90
2023-04-12T00:24:49.767Z,7.90
2023-04-12T00:27:16.658Z,7.90
2023-04-12T00:29:43.762Z,7.90
2023-04-12T00:32:10.727Z,7.90
2023-04-12T00:34:37.625Z,7.90
2023-04-12T00:37:04.536Z,7.80
2023-04-12T00:39:31.690Z,7.80
2023-04-12T00:42:00.952Z,7.80
2023-04-12T00:44:27.848Z,7.70
2023-04-12T00:46:54.784Z,7.70
2023-04-12T00:49:21.768Z,7.70
2023-04-12T00:51:48.732Z,7.70
2023-04-12T00:54:18.201Z,7.70
2023-04-12T00:56:47.365Z,7.60
2023-04-12T00:59:14.486Z,7.60
2023-04-12T01:01:41.961Z,7.60
2023-04-12T01:04:09.427Z,7.60
2023-04-12T01:06:59.787Z,7.50
2023-04-12T01:09:34.829Z,7.50
2023-04-12T01:12:13.845Z,7.50
2023-04-12T01:14:55.384Z,7.50
2023-04-12T01:17:27.562Z,7.40
2023-04-12T01:20:01.006Z,7.40
2023-04-12T01:22:49.142Z,7.40
2023-04-12T01:25:45.164Z,7.40
2023-04-12T01:28:16.392Z,7.30
2023-04-12T01:30:44.437Z,7.30
2023-04-12T01:33:12.656Z,7.30
2023-04-12T01:35:41.297Z,7.30
2023-04-12T01:38:09.654Z,7.20
2023-04-12T01:40:36.982Z,7.30
2023-04-12T01:43:14.924Z,7.20
2023-04-12T01:45:42.027Z,7.20
2023-04-12T01:48:11.056Z,7.20
2023-04-12T01:50:46.939Z,7.20
2023-04-12T01:53:21.144Z,7.20
2023-04-12T01:55:50.594Z,7.20
2023-04-12T01:58:22.101Z,7.10
2023-04-12T02:00:51.213Z,7.10
2023-04-12T02:03:20.541Z,7.10
2023-04-12T02:05:48.407Z,7.10
2023-04-12T02:08:15.687Z,7.10
2023-04-12T02:10:42.792Z,7.10
2023-04-12T02:13:09.730Z,7.10
2023-04-12T02:15:37.565Z,7.10
2023-04-12T02:18:04.765Z,7.10
2023-04-12T02:20:31.716Z,7.10
2023-04-12T02:23:00.341Z,7.00
2023-04-12T02:25:27.611Z,7.00
2023-04-12T02:27:54.573Z,7.00
2023-04-12T02:30:21.768Z,7.00
2023-04-12T02:32:49.803Z,7.00
2023-04-12T02:35:20.234Z,7.00
2023-04-12T02:37:48.560Z,7.00
2023-04-12T02:40:16.188Z,6.90
2023-04-12T02:42:44.398Z,6.90
2023-04-12T02:45:11.947Z,6.90
2023-04-12T02:47:40.320Z,6.90
2023-04-12T02:50:07.721Z,6.90
2023-04-12T02:52:34.658Z,6.90
2023-04-12T02:55:01.758Z,6.80
2023-04-12T02:57:28.921Z,6.80
2023-04-12T02:59:55.893Z,6.80
2023-04-12T03:02:23.692Z,6.80
2023-04-12T03:04:54.877Z,6.80
2023-04-12T03:07:22.879Z,6.80
2023-04-12T03:09:51.011Z,6.80
2023-04-12T03:12:17.998Z,6.80
2023-04-12T03:14:44.885Z,6.80
2023-04-12T03:17:11.740Z,6.80
2023-04-12T03:19:38.735Z,6.80
2023-04-12T03:22:06.245Z,6.70
2023-04-12T03:24:37.323Z,6.70
2023-04-12T03:27:05.741Z,6.70
2023-04-12T03:29:32.756Z,6.60
2023-04-12T03:31:59.782Z,6.60
2023-04-12T03:34:32.309Z,6.60
2023-04-12T03:37:01.111Z,6.60
2023-04-12T03:39:29.102Z,6.60
2023-04-12T03:41:56.026Z,6.60
2023-04-12T03:44:26.208Z,6.60
2023-04-12T03:46:53.981Z,6.50
2023-04-12T03:49:21.579Z,6.50
2023-04-12T03:51:50.774Z,6.50
2023-04-12T03:54:17.750Z,6.40
2023-04-12T03:56:46.056Z,6.50
2023-04-12T03:59:14.864Z,6.50
2023-04-12T04:01:42.034Z,6.40
2023-04-12T04:04:09.178Z,6.40
2023-04-12T04:06:36.436Z,6.40
2023-04-12T04:09:03.608Z,6.40
2023-04-12T04:11:31.882Z,6.30
2023-04-12T04:13:58.846Z,6.30
2023-04-12T04:16:25.831Z,6.40
2023-04-12T04:18:52.734Z,6.30
2023-04-12T04:21:19.747Z,6.40
2023-04-12T04:23:48.042Z,6.50
2023-04-12T04:26:17.040Z,6.60
2023-04-12T04:28:47.792Z,6.80
2023-04-12T04:31:17.682Z,7.00
2023-04-12T04:33:44.856Z,7.30
2023-04-12T04:36:12.784Z,7.60
2023-04-12T04:38:40.648Z,7.90
2023-04-12T04:41:09.243Z,8.20
2023-04-12T04:43:40.023Z,8.40
2023-04-12T04:46:07.237Z,8.60
2023-04-12T04:48:34.197Z,8.80
2023-04-12T04:51:02.182Z,8.90
2023-04-12T04:53:29.174Z,9.20
2023-04-12T04:55:59.919Z,9.40
2023-04-12T04:58:27.784Z,9.70
2023-04-12T05:00:59.775Z,10.00
2023-04-12T05:03:30.962Z,10.30
2023-04-12T05:05:58.152Z,10.70
2023-04-12T05:08:25.313Z,11.00
2023-04-12T05:10:53.193Z,11.30
2023-04-12T05:13:21.166Z,11.60
2023-04-12T05:15:48.778Z,12.00
2023-04-12T05:18:16.022Z,12.20
2023-04-12T05:20:43.219Z,12.60
2023-04-12T05:23:10.269Z,12.90
2023-04-12T05:25:37.384Z,13.10
2023-04-12T05:28:04.651Z,13.40
2023-04-12T05:30:32.155Z,13.70
2023-04-12T05:32:59.116Z,13.90
2023-04-12T05:35:26.188Z,14.20
2023-04-12T05:37:53.070Z,14.50
2023-04-12T05:40:19.955Z,14.60
2023-04-12T05:42:46.811Z,14.90
2023-04-12T05:45:13.736Z,15.20
2023-04-12T05:47:40.643Z,15.40
2023-04-12T05:50:08.256Z,15.60
2023-04-12T05:52:36.617Z,15.80
2023-04-12T05:55:03.821Z,15.90
2023-04-12T05:57:30.789Z,16.00
2023-04-12T05:59:57.645Z,16.20
2023-04-12T06:02:26.270Z,16.40
2023-04-12T06:04:55.816Z,16.50
2023-04-12T06:07:23.033Z,16.80
2023-04-12T06:09:50.146Z,17.00
2023-04-12T06:12:17.153Z,17.00
2023-04-12T06:14:44.083Z,17.00
2023-04-12T06:17:11.428Z,17.20
2023-04-12T06:19:38.316Z,17.40
2023-04-12T06:22:05.319Z,17.50
2023-04-12T06:24:32.183Z,17.60
2023-04-12T06:26:59.071Z,17.80
2023-04-12T06:29:26.267Z,17.90
2023-04-12T06:31:53.196Z,18.00
2023-04-12T06:34:20.159Z,17.90
2023-04-12T06:36:47.859Z,17.80
2023-04-12T06:39:16.374Z,17.90
2023-04-12T06:41:50.564Z,18.00
2023-04-12T06:44:17.473Z,18.00
2023-04-12T06:46:44.471Z,18.10
2023-04-12T06:49:11.426Z,18.40
2023-04-12T06:51:38.321Z,18.60
2023-04-12T06:54:05.370Z,18.70
2023-04-12T06:56:32.328Z,18.80
2023-04-12T06:58:59.494Z,18.80
2023-04-12T07:01:26.974Z,18.80
2023-04-12T07:03:54.042Z,19.10
2023-04-12T07:06:25.670Z,19.20
2023-04-12T07:08:53.264Z,19.30
2023-04-12T07:11:23.125Z,19.30
2023-04-12T07:13:51.225Z,19.30
2023-04-12T07:16:18.576Z,19.40
2023-04-12T07:18:45.617Z,19.30
2023-04-12T07:21:17.540Z,19.50
2023-04-12T07:23:44.855Z,19.50
2023-04-12T07:26:11.780Z,19.50
2023-04-12T07:28:39.322Z,19.60
2023-04-12T07:31:07.429Z,19.80
2023-04-12T07:33:39.443Z,19.80
2023-04-12T07:36:08.828Z,19.90
2023-04-12T07:38:35.915Z,19.90
2023-04-12T07:41:02.904Z,19.80
2023-04-12T07:43:29.796Z,19.90
2023-04-12T07:45:56.747Z,19.90
2023-04-12T07:48:23.786Z,20.10
2023-04-12T07:50:51.485Z,20.30
2023-04-12T07:53:22.901Z,20.40
2023-04-12T07:55:51.167Z,20.70
2023-04-12T07:58:18.943Z,20.60
2023-04-12T08:00:46.839Z,20.70
2023-04-12T08:03:16.388Z,20.70
2023-04-12T08:05:44.362Z,20.80
2023-04-12T08:08:11.995Z,20.90
2023-04-12T08:10:39.863Z,21.00
2023-04-12T08:13:07.157Z,21.10
2023-04-12T08:15:34.182Z,21.20
2023-04-12T08:18:02.778Z,21.20
2023-04-12T08:20:30.271Z,21.30
2023-04-12T08:22:57.413Z,21.40
2023-04-12T08:25:24.617Z,21.50
2023-04-12T08:27:52.000Z,21.40
2023-04-12T08:30:20.488Z,21.40
2023-04-12T08:32:47.500Z,21.20
2023-04-12T08:35:15.312Z,21.30
2023-04-12T08:37:42.298Z,21.40
2023-04-12T08:40:09.861Z,21.40
2023-04-12T08:42:37.882Z,21.40
2023-04-12T08:45:09.888Z,21.50
2023-04-12T08:47:39.702Z,21.60
2023-04-12T08:50:09.447Z,21.90
2023-04-12T08:52:37.883Z,22.10
2023-04-12T08:55:06.269Z,22.30
2023-04-12T08:57:35.770Z,22.50
2023-04-12T09:00:04.300Z,22.60
2023-04-12T09:02:31.886Z,22.60
2023-04-12T09:04:59.159Z,22.60
2023-04-12T09:07:28.835Z,22.60
2023-04-12T09:09:56.351Z,22.30
2023-04-12T09:12:55.562Z,21.30
2023-04-12T09:15:22.411Z,21.20
2023-04-12T09:17:49.679Z,21.50
2023-04-12T09:20:16.614Z,21.70
2023-04-12T09:22:45.327Z,22.00
2023-04-12T09:25:13.800Z,22.20
2023-04-12T09:27:58.417Z,22.50
2023-04-12T09:30:25.786Z,22.80
2023-04-12T09:32:54.595Z,22.80
2023-04-12T09:35:43.089Z,22.80
2023-04-12T09:38:11.030Z,22.80
2023-04-12T09:40:38.698Z,22.60
2023-04-12T09:43:07.511Z,22.80
2023-04-12T09:45:41.293Z,22.90
2023-04-12T09:48:17.568Z,22.40
2023-04-12T09:50:46.205Z,21.50
2023-04-12T09:53:20.332Z,20.70
2023-04-12T09:55:50.902Z,20.20
2023-04-12T09:58:21.572Z,19.80
2023-04-12T10:00:49.118Z,20.10
2023-04-12T10:03:16.467Z,20.50
2023-04-12T10:05:43.514Z,20.70
2023-04-12T10:08:13.339Z,20.50
2023-04-12T10:10:40.498Z,20.60
2023-04-12T10:13:10.279Z,20.80
2023-04-12T10:15:38.193Z,20.70
2023-04-12T10:18:07.541Z,20.40
2023-04-12T10:20:34.898Z,20.00
2023-04-12T10:23:02.068Z,19.60
2023-04-12T10:25:32.936Z,19.40
2023-04-12T10:28:18.987Z,18.80
2023-04-12T10:30:49.557Z,18.60
2023-04-12T10:33:19.125Z,18.50
2023-04-12T10:35:53.484Z,18.40
2023-04-12T10:38:21.341Z,18.30
2023-04-12T10:41:22.739Z,18.50
2023-04-12T10:44:10.272Z,18.60
2023-04-12T10:46:46.467Z,18.60
2023-04-12T10:49:14.845Z,18.50
2023-04-12T10:52:02.717Z,18.20
2023-04-12T10:54:32.590Z,17.90
2023-04-12T10:56:59.459Z,17.70
2023-04-12T10:59:34.127Z,17.70
2023-04-12T11:02:09.468Z,17.80
2023-04-12T11:04:37.302Z,17.60
2023-04-12T11:07:10.154Z,17.30
2023-04-12T11:09:36.998Z,17.10
2023-04-12T11:12:09.560Z,17.20
2023-04-12T11:14:49.169Z,17.70
2023-04-12T11:17:16.109Z,17.90
2023-04-12T11:19:44.929Z,18.00
2023-04-12T11:22:16.564Z,17.80
2023-04-12T11:24:45.628Z,17.80
2023-04-12T11:27:13.091Z,17.90
2023-04-12T11:29:40.653Z,18.00
2023-04-12T11:32:12.833Z,18.00
2023-04-12T11:34:41.174Z,18.10
2023-04-12T11:37:08.860Z,18.30
2023-04-12T11:39:43.731Z,18.30
2023-04-12T11:42:15.784Z,18.30
2023-04-12T11:44:56.290Z,18.30
2023-04-12T11:47:26.951Z,18.00
2023-04-12T11:49:56.129Z,17.90
2023-04-12T11:52:30.236Z,17.90
2023-04-12T11:54:59.260Z,17.90
2023-04-12T11:57:26.406Z,18.00
2023-04-12T11:59:53.797Z,18.10
2023-04-12T12:02:23.470Z,17.90
2023-04-12T12:04:52.070Z,17.80
2023-04-12T12:07:21.774Z,17.70
2023-04-12T12:09:50.196Z,17.70
2023-04-12T12:12:18.852Z,17.70
2023-04-12T12:14:47.541Z,17.70
2023-04-12T12:17:16.415Z,17.60
2023-04-12T12:19:46.955Z,17.70
2023-04-12T12:22:13.929Z,17.60
2023-04-12T12:25:00.808Z,17.40
2023-04-12T12:27:44.353Z,17.50
2023-04-12T12:30:12.398Z,17.60
2023-04-12T12:32:40.310Z,17.60
2023-04-12T12:35:12.646Z,17.60
2023-04-12T12:37:53.320Z,17.70
2023-04-12T12:40:30.526Z,17.80
2023-04-12T12:42:57.414Z,17.60
2023-04-12T12:45:26.820Z,17.60
2023-04-12T12:47:59.104Z,17.60
2023-04-12T12:50:28.068Z,17.60
2023-04-12T12:52:55.942Z,17.50
2023-04-12T12:55:24.491Z,17.50
2023-04-12T12:58:06.767Z,17.50
2023-04-12T13:00:35.439Z,17.50
2023-04-12T13:03:03.257Z,17.50
2023-04-12T13:05:30.509Z,17.60
2023-04-12T13:07:57.386Z,17.50
2023-04-12T13:10:24.401Z,17.50
2023-04-12T13:12:51.527Z,17.50
2023-04-12T13:15:22.962Z,17.40
2023-04-12T13:17:54.935Z,17.50
2023-04-12T13:20:22.843Z,17.40
2023-04-12T13:22:51.580Z,17.40
2023-04-12T13:25:21.691Z,17.40
2023-04-12T13:27:49.725Z,17.30
2023-04-12T13:30:17.813Z,17.40
2023-04-12T13:32:44.961Z,17.40
2023-04-12T13:35:12.036Z,17.40
2023-04-12T13:37:39.611Z,17.50
2023-04-12T13:40:07.469Z,17.50
2023-04-12T13:42:34.755Z,17.50
2023-04-12T13:45:01.655Z,17.40
2023-04-12T13:47:28.532Z,17.40
2023-04-12T13:49:55.432Z,17.30
2023-04-12T13:52:22.515Z,17.30
2023-04-12T13:54:49.409Z,17.00
2023-04-12T13:57:16.375Z,16.90
2023-04-12T13:59:43.229Z,16.90
2023-04-12T14:02:10.184Z,17.00
2023-04-12T14:04:37.204Z,17.00
2023-04-12T14:07:04.145Z,17.00
2023-04-12T14:09:32.409Z,17.00
2023-04-12T14:12:02.057Z,17.00
2023-04-12T14:14:29.170Z,17.00
2023-04-12T14:17:01.963Z,17.10
2023-04-12T14:19:29.174Z,17.10
2023-04-12T14:21:56.856Z,17.10
2023-04-12T14:24:23.914Z,17.10
2023-04-12T14:26:50.792Z,17.10
2023-04-12T14:29:17.710Z,17.00
2023-04-12T14:31:44.780Z,17.00
2023-04-12T14:34:11.828Z,17.10
2023-04-12T14:36:38.774Z,16.90
2023-04-12T14:39:08.519Z,16.80
2023-04-12T14:41:37.521Z,16.90
2023-04-12T14:44:05.783Z,16.90
2023-04-12T14:46:32.804Z,17.00
2023-04-12T14:49:01.479Z,16.90
2023-04-12T14:51:29.745Z,16.80
2023-04-12T14:53:57.391Z,16.70
2023-04-12T14:56:29.091Z,16.80
2023-04-12T14:58:57.351Z,16.80
2023-04-12T15:01:25.704Z,16.70
2023-04-12T15:03:55.518Z,16.60
2023-04-12T15:06:23.844Z,16.60
2023-04-12T15:08:55.110Z,16.60
2023-04-12T15:11:26.790Z,16.70
2023-04-12T15:13:55.104Z,16.70
2023-04-12T15:16:22.574Z,16.60
2023-04-12T15:18:51.654Z,16.60
2023-04-12T15:21:19.008Z,16.60
2023-04-12T15:23:46.444Z,16.60
2023-04-12T15:26:14.497Z,16.60
2023-04-12T15:28:42.281Z,16.60
2023-04-12T15:31:09.681Z,16.50
2023-04-12T15:33:37.480Z,16.50
2023-04-12T15:36:05.480Z,16.50
2023-04-12T15:38:32.741Z,16.40
2023-04-12T15:41:01.895Z,16.20
2023-04-12T15:43:29.304Z,16.20
2023-04-12T15:45:57.140Z,16.30
2023-04-12T15:48:25.713Z,16.30
2023-04-12T15:50:55.274Z,16.20
2023-04-12T15:53:25.161Z,16.20
2023-04-12T15:55:55.524Z,16.20
2023-04-12T15:58:27.370Z,16.30
2023-04-12T16:00:54.838Z,16.20
2023-04-12T16:03:26.402Z,16.20
2023-04-12T16:05:54.376Z,16.20
2023-04-12T16:08:22.397Z,16.10
2023-04-12T16:10:50.771Z,16.20
2023-04-12T16:13:18.524Z,16.00
2023-04-12T16:15:46.243Z,15.90
2023-04-12T16:18:13.802Z,15.80
2023-04-12T16:20:41.262Z,15.60
2023-04-12T16:23:11.023Z,15.60
2023-04-12T16:25:38.120Z,15.70
2023-04-12T16:28:06.115Z,15.70
2023-04-12T16:30:35.174Z,15.60
2023-04-12T16:33:02.730Z,15.60
2023-04-12T16:35:30.308Z,15.40
2023-04-12T16:37:57.453Z,15.30
2023-04-12T16:40:24.778Z,15.20
2023-04-12T16:42:51.865Z,15.20
2023-04-12T16:45:20.261Z,15.20
2023-04-12T16:47:47.987Z,15.10
2023-04-12T16:50:15.926Z,15.00
2023-04-12T16:52:43.424Z,15.00
2023-04-12T16:55:12.395Z,14.90
2023-04-12T16:57:46.260Z,14.90
2023-04-12T17:00:20.694Z,14.90
2023-04-12T17:02:53.332Z,14.80
2023-04-12T17:05:22.532Z,14.70
2023-04-12T17:07:52.107Z,14.60
2023-04-12T17:10:21.815Z,14.50
2023-04-12T17:12:55.499Z,14.30
2023-04-12T17:15:23.451Z,14.20
2023-04-12T17:17:53.440Z,14.00
2023-04-12T17:20:25.750Z,13.90
2023-04-12T17:22:55.092Z,13.80
2023-04-12T17:25:25.826Z,13.70
2023-04-12T17:27:54.855Z,13.60
2023-04-12T17:30:22.268Z,13.40
2023-04-12T17:32:50.246Z,13.30
2023-04-12T17:35:19.065Z,13.20
2023-04-12T17:37:47.100Z,13.10
2023-04-12T17:40:15.623Z,12.90
2023-04-12T17:42:43.662Z,12.90
2023-04-12T17:45:13.248Z,12.80
2023-04-12T17:47:42.170Z,12.70
2023-04-12T17:50:12.827Z,12.60
2023-04-12T17:52:42.515Z,12.50
2023-04-12T17:55:12.227Z,12.40
2023-04-12T17:57:39.919Z,12.30
2023-04-12T18:00:14.581Z,12.20
2023-04-12T18:02:45.968Z,12.10
2023-04-12T18:05:13.546Z,12.10
2023-04-12T18:07:42.828Z,12.00
2023-04-12T18:10:13.114Z,12.00
2023-04-12T18:12:41.210Z,11.90
2023-04-12T18:15:09.334Z,11.80
2023-04-12T18:17:36.853Z,11.70
2023-04-12T18:20:10.673Z,11.60
2023-04-12T18:22:40.115Z,11.50
2023-04-12T18:25:09.018Z,11.50
2023-04-12T18:27:37.023Z,11.40
2023-04-12T18:30:05.538Z,11.30
2023-04-12T18:32:32.994Z,11.30
2023-04-12T18:35:01.183Z,11.20
2023-04-12T18:37:28.811Z,11.10
2023-04-12T18:39:59.537Z,11.00
2023-04-12T18:42:27.441Z,10.80
2023-04-12T18:44:57.414Z,10.80
2023-04-12T18:47:27.633Z,10.70
2023-04-12T18:49:56.322Z,10.70
2023-04-12T18:52:23.987Z,10.60
2023-04-12T18:54:52.043Z,10.60
2023-04-12T18:57:19.959Z,10.60
2023-04-12T18:59:49.425Z,10.60
2023-04-12T19:02:18.775Z,10.20
2023-04-12T19:04:48.688Z,10.30
2023-04-12T19:07:17.613Z,10.30
2023-04-12T19:09:46.968Z,10.20
2023-04-12T19:12:16.277Z,10.10
2023-04-12T19:14:45.210Z,10.00
2023-04-12T19:17:13.095Z,10.00
2023-04-12T19:19:40.896Z,10.00
2023-04-12T19:22:08.398Z,9.90
2023-04-12T19:24:56.029Z,9.80
2023-04-12T19:27:23.724Z,9.80
2023-04-12T19:29:54.701Z,9.80
2023-04-12T19:32:23.892Z,9.80
2023-04-12T19:34:51.968Z,9.70
2023-04-12T19:37:20.803Z,9.60
2023-04-12T19:39:48.165Z,9.70
2023-04-12T19:42:16.733Z,9.70
2023-04-12T19:44:44.980Z,9.60
2023-04-12T19:47:12.895Z,9.50
2023-04-12T19:49:41.555Z,9.40
2023-04-12T19:52:09.958Z,9.30
2023-04-12T19:54:37.704Z,9.30
2023-04-12T19:57:08.793Z,9.20
2023-04-12T19:59:37.399Z,9.20
2023-04-12T20:02:05.188Z,9.20
2023-04-12T20:04:33.562Z,9.10
2023-04-12T20:07:01.685Z,9.10
2023-04-12T20:09:29.636Z,9.10
2023-04-12T20:11:57.819Z,9.00
2023-04-12T20:14:27.029Z,9.00
2023-04-12T20:16:59.747Z,8.90
2023-04-12T20:19:28.055Z,8.90
2023-04-12T20:22:02.392Z,8.90
2023-04-12T20:24:34.971Z,8.90
2023-04-12T20:27:03.162Z,8.80
2023-04-12T20:29:32.902Z,8.80
2023-04-12T20:32:01.447Z,8.80
2023-04-12T20:34:30.056Z,8.80
2023-04-12T20:36:58.215Z,8.70
2023-04-12T20:39:27.118Z,8.70
2023-04-12T20:41:56.512Z,8.70
2023-04-12T20:44:24.230Z,8.70
2023-04-12T20:46:51.417Z,8.70
2023-04-12T20:49:19.445Z,8.60
2023-04-12T20:51:47.790Z,8.50
2023-04-12T20:54:15.225Z,8.50
2023-04-12T20:56:43.255Z,8.40
2023-04-12T20:59:10.925Z,8.40
2023-04-12T21:01:38.209Z,8.40
2023-04-12T21:04:06.685Z,8.40
2023-04-12T21:06:34.652Z,8.40
2023-04-12T21:09:01.913Z,8.30
2023-04-12T21:11:28.873Z,8.30
2023-04-12T21:13:55.880Z,8.30
2023-04-12T21:16:25.011Z,8.30
2023-04-12T21:18:53.359Z,8.30
2023-04-12T21:21:20.307Z,8.30
2023-04-12T21:23:47.674Z,8.30
2023-04-12T21:26:16.044Z,8.30
2023-04-12T21:28:42.933Z,8.30
2023-04-12T21:31:10.155Z,8.20
2023-04-12T21:33:37.092Z,8.20
2023-04-12T21:36:04.458Z,8.20
2023-04-12T21:38:31.292Z,8.20
2023-04-12T21:41:05.563Z,8.10
2023-04-12T21:43:32.482Z,8.10
2023-04-12T21:45:59.407Z,8.00
2023-04-12T21:48:26.281Z,8.00
2023-04-12T21:50:53.157Z,7.90
2023-04-12T21:53:20.045Z,7.90
2023-04-12T21:55:46.907Z,7.90
2023-04-12T21:58:13.725Z,7.90
2023-04-12T22:00:41.771Z,7.90
2023-04-12T22:03:08.816Z,7.90
2023-04-12T22:05:39.997Z,7.90
2023-04-12T22:08:07.773Z,7.80
2023-04-12T22:10:37.443Z,7.80
2023-04-12T22:13:04.418Z,7.80
2023-04-12T22:15:31.731Z,7.80
2023-04-12T22:17:59.147Z,7.80
2023-04-12T22:20:28.414Z,7.90
2023-04-12T22:22:57.287Z,7.90
2023-04-12T22:25:24.276Z,7.90
2023-04-12T22:27:53.262Z,7.90
2023-04-12T22:30:20.318Z,7.90
2023-04-12T22:32:47.198Z,7.90
2023-04-12T22:35:14.153Z,7.90
2023-04-12T22:37:43.828Z,7.90
2023-04-12T22:40:14.235Z,7.90
2023-04-12T22:42:50.620Z,7.90
2023-04-12T22:45:18.193Z,7.90
2023-04-12T22:47:45.868Z,7.80
2023-04-12T22:50:13.369Z,7.80
2023-04-12T22:52:40.819Z,7.80
2023-04-12T22:55:09.275Z,7.70
2023-04-12T22:57:36.567Z,7.80
2023-04-12T23:00:08.102Z,7.90
2023-04-12T23:02:35.070Z,7.90
2023-04-12T23:05:02.885Z,7.90
2023-04-12T23:07:30.377Z,7.80
2023-04-12T23:09:57.942Z,7.80
2023-04-12T23:12:25.334Z,7.90
2023-04-12T23:14:55.715Z,7.90
2023-04-12T23:17:22.866Z,8.00
2023-04-12T23:19:50.649Z,8.00
2023-04-12T23:22:41.638Z,8.10
2023-04-12T23:25:14.791Z,8.20
2023-04-12T23:27:42.030Z,8.30
2023-04-12T23:30:11.016Z,8.30
2023-04-12T23:32:38.330Z,8.40
2023-04-12T23:35:05.646Z,8.40
2023-04-12T23:37:32.666Z,8.40
2023-04-12T23:40:06.901Z,8.50
2023-04-12T23:42:35.781Z,8.50
2023-04-12T23:45:03.849Z,8.60
2023-04-12T23:47:31.176Z,8.60
2023-04-12T23:49:58.143Z,8.60
2023-04-12T23:52:25.039Z,8.60
2023-04-12T23:54:51.984Z,8.60
2023-04-12T23:57:18.868Z,8.70
2023-04-12T23:59:45.755Z,8.70
